sensor_id;sensor_type;location;lat;lon;timestamp;P1;durP1;ratioP1;P2;durP2;ratioP2
11024;SDS011;22890;51.820;8.682;2023-05-07T00:02:01;13.53;;;8.43;;
11024;SDS011;22890;51.820;8.682;2023-05-07T00:04:30;9.70;;;7.90;;
11024;SDS011;22890;51.820;8.682;2023-05-07T00:07:02;9.90;;;8.27;;
11024;SDS011;22890;51.820;8.682;2023-05-07T00:09:29;10.50;;;8.27;;
11024;SDS011;22890;51.820;8.682;2023-05-07T00:11:56;8.93;;;7.80;;
11024;SDS011;22890;51.820;8.682;2023-05-07T00:14:24;11.83;;;9.17;;
11024;SDS011;22890;51.820;8.682;2023-05-07T00:16:51;12.50;;;8.60;;
11024;SDS011;22890;51.820;8.682;2023-05-07T00:19:18;10.60;;;8.80;;
11024;SDS011;22890;51.820;8.682;2023-05-07T00:21:45;12.27;;;8.53;;
11024;SDS011;22890;51.820;8.682;2023-05-07T00:24:12;11.80;;;8.77;;
11024;SDS011;22890;51.820;8.682;2023-05-07T00:26:39;10.40;;;8.27;;
11024;SDS011;22890;51.820;8.682;2023-05-07T00:29:07;12.23;;;8.83;;
11024;SDS011;22890;51.820;8.682;2023-05-07T00:31:33;13.37;;;8.70;;
11024;SDS011;22890;51.820;8.682;2023-05-07T00:34:01;13.83;;;9.37;;
11024;SDS011;22890;51.820;8.682;2023-05-07T00:36:28;11.13;;;9.13;;
11024;SDS011;22890;51.820;8.682;2023-05-07T00:38:56;13.00;;;8.80;;
11024;SDS011;22890;51.820;8.682;2023-05-07T00:41:24;9.93;;;8.90;;
11024;SDS011;22890;51.820;8.682;2023-05-07T00:43:52;13.93;;;9.47;;
11024;SDS011;22890;51.820;8.682;2023-05-07T00:46:20;14.03;;;9.77;;
11024;SDS011;22890;51.820;8.682;2023-05-07T00:48:47;11.47;;;9.30;;
11024;SDS011;22890;51.820;8.682;2023-05-07T00:51:14;14.40;;;9.63;;
11024;SDS011;22890;51.820;8.682;2023-05-07T00:53:42;13.20;;;9.77;;
11024;SDS011;22890;51.820;8.682;2023-05-07T00:56:08;13.63;;;10.30;;
11024;SDS011;22890;51.820;8.682;2023-05-07T00:58:36;16.60;;;10.03;;
11024;SDS011;22890;51.820;8.682;2023-05-07T01:01:03;13.17;;;9.57;;
11024;SDS011;22890;51.820;8.682;2023-05-07T01:03:30;11.83;;;10.00;;
11024;SDS011;22890;51.820;8.682;2023-05-07T01:05:58;10.63;;;9.60;;
11024;SDS011;22890;51.820;8.682;2023-05-07T01:08:26;11.93;;;10.40;;
11024;SDS011;22890;51.820;8.682;2023-05-07T01:10:56;13.40;;;10.53;;
11024;SDS011;22890;51.820;8.682;2023-05-07T01:13:23;10.87;;;9.77;;
11024;SDS011;22890;51.820;8.682;2023-05-07T01:15:51;13.17;;;10.50;;
11024;SDS011;22890;51.820;8.682;2023-05-07T01:18:18;13.83;;;10.17;;
11024;SDS011;22890;51.820;8.682;2023-05-07T01:20:45;16.13;;;10.33;;
11024;SDS011;22890;51.820;8.682;2023-05-07T01:23:12;13.50;;;11.37;;
11024;SDS011;22890;51.820;8.682;2023-05-07T01:25:39;12.23;;;10.87;;
11024;SDS011;22890;51.820;8.682;2023-05-07T01:28:07;12.37;;;10.40;;
11024;SDS011;22890;51.820;8.682;2023-05-07T01:30:36;12.80;;;11.40;;
11024;SDS011;22890;51.820;8.682;2023-05-07T01:33:09;16.97;;;11.27;;
11024;SDS011;22890;51.820;8.682;2023-05-07T01:35:39;14.97;;;10.70;;
11024;SDS011;22890;51.820;8.682;2023-05-07T01:38:09;14.07;;;11.00;;
11024;SDS011;22890;51.820;8.682;2023-05-07T01:40:36;17.10;;;12.37;;
11024;SDS011;22890;51.820;8.682;2023-05-07T01:43:04;16.83;;;11.73;;
11024;SDS011;22890;51.820;8.682;2023-05-07T01:45:33;15.57;;;11.13;;
11024;SDS011;22890;51.820;8.682;2023-05-07T01:48:01;14.77;;;11.10;;
11024;SDS011;22890;51.820;8.682;2023-05-07T01:50:29;15.43;;;11.77;;
11024;SDS011;22890;51.820;8.682;2023-05-07T01:52:57;14.00;;;11.87;;
11024;SDS011;22890;51.820;8.682;2023-05-07T01:55:24;14.50;;;10.67;;
11024;SDS011;22890;51.820;8.682;2023-05-07T01:57:51;14.40;;;10.57;;
11024;SDS011;22890;51.820;8.682;2023-05-07T02:00:19;13.60;;;11.80;;
11024;SDS011;22890;51.820;8.682;2023-05-07T02:02:46;14.50;;;11.33;;
11024;SDS011;22890;51.820;8.682;2023-05-07T02:05:25;15.93;;;11.93;;
11024;SDS011;22890;51.820;8.682;2023-05-07T02:07:58;15.37;;;11.77;;
11024;SDS011;22890;51.820;8.682;2023-05-07T02:10:26;14.70;;;12.10;;
11024;SDS011;22890;51.820;8.682;2023-05-07T02:12:54;14.80;;;11.53;;
11024;SDS011;22890;51.820;8.682;2023-05-07T02:15:21;14.63;;;12.10;;
11024;SDS011;22890;51.820;8.682;2023-05-07T02:18:04;13.27;;;11.63;;
11024;SDS011;22890;51.820;8.682;2023-05-07T02:20:32;16.77;;;11.27;;
11024;SDS011;22890;51.820;8.682;2023-05-07T02:22:59;14.67;;;12.10;;
11024;SDS011;22890;51.820;8.682;2023-05-07T02:25:28;17.47;;;12.07;;
11024;SDS011;22890;51.820;8.682;2023-05-07T02:27:56;19.00;;;12.33;;
11024;SDS011;22890;51.820;8.682;2023-05-07T02:30:33;16.37;;;12.27;;
11024;SDS011;22890;51.820;8.682;2023-05-07T02:33:00;15.97;;;12.03;;
11024;SDS011;22890;51.820;8.682;2023-05-07T02:35:27;15.40;;;12.17;;
11024;SDS011;22890;51.820;8.682;2023-05-07T02:37:55;21.90;;;12.83;;
11024;SDS011;22890;51.820;8.682;2023-05-07T02:40:23;17.77;;;12.47;;
11024;SDS011;22890;51.820;8.682;2023-05-07T02:42:51;15.37;;;12.53;;
11024;SDS011;22890;51.820;8.682;2023-05-07T02:45:18;14.50;;;11.60;;
11024;SDS011;22890;51.820;8.682;2023-05-07T02:47:46;15.20;;;12.43;;
11024;SDS011;22890;51.820;8.682;2023-05-07T02:50:13;18.70;;;12.57;;
11024;SDS011;22890;51.820;8.682;2023-05-07T02:52:41;15.90;;;12.67;;
11024;SDS011;22890;51.820;8.682;2023-05-07T02:55:08;15.77;;;12.07;;
11024;SDS011;22890;51.820;8.682;2023-05-07T02:57:35;16.47;;;12.90;;
11024;SDS011;22890;51.820;8.682;2023-05-07T03:00:13;17.43;;;12.57;;
11024;SDS011;22890;51.820;8.682;2023-05-07T03:02:50;17.23;;;12.50;;
11024;SDS011;22890;51.820;8.682;2023-05-07T03:05:17;15.87;;;12.37;;
11024;SDS011;22890;51.820;8.682;2023-05-07T03:07:44;15.87;;;12.47;;
11024;SDS011;22890;51.820;8.682;2023-05-07T03:10:13;19.13;;;14.07;;
11024;SDS011;22890;51.820;8.682;2023-05-07T03:12:40;20.47;;;13.90;;
11024;SDS011;22890;51.820;8.682;2023-05-07T03:15:10;18.87;;;12.37;;
11024;SDS011;22890;51.820;8.682;2023-05-07T03:17:38;20.30;;;14.60;;
11024;SDS011;22890;51.820;8.682;2023-05-07T03:20:05;18.60;;;13.70;;
11024;SDS011;22890;51.820;8.682;2023-05-07T03:22:33;16.53;;;12.70;;
11024;SDS011;22890;51.820;8.682;2023-05-07T03:25:01;18.87;;;13.43;;
11024;SDS011;22890;51.820;8.682;2023-05-07T03:27:28;17.73;;;13.97;;
11024;SDS011;22890;51.820;8.682;2023-05-07T03:29:55;17.73;;;12.27;;
11024;SDS011;22890;51.820;8.682;2023-05-07T03:32:22;19.60;;;13.63;;
11024;SDS011;22890;51.820;8.682;2023-05-07T03:34:49;17.70;;;13.10;;
11024;SDS011;22890;51.820;8.682;2023-05-07T03:37:16;18.17;;;13.57;;
11024;SDS011;22890;51.820;8.682;2023-05-07T03:39:43;20.97;;;14.30;;
11024;SDS011;22890;51.820;8.682;2023-05-07T03:42:11;17.53;;;13.60;;
11024;SDS011;22890;51.820;8.682;2023-05-07T03:44:38;23.50;;;14.70;;
11024;SDS011;22890;51.820;8.682;2023-05-07T03:47:06;20.00;;;13.17;;
11024;SDS011;22890;51.820;8.682;2023-05-07T03:49:34;20.10;;;14.37;;
11024;SDS011;22890;51.820;8.682;2023-05-07T03:52:01;23.70;;;14.67;;
11024;SDS011;22890;51.820;8.682;2023-05-07T03:54:30;20.33;;;14.50;;
11024;SDS011;22890;51.820;8.682;2023-05-07T03:56:57;22.20;;;15.47;;
11024;SDS011;22890;51.820;8.682;2023-05-07T03:59:24;21.97;;;14.87;;
11024;SDS011;22890;51.820;8.682;2023-05-07T04:01:51;25.80;;;16.00;;
11024;SDS011;22890;51.820;8.682;2023-05-07T04:04:21;20.67;;;14.80;;
11024;SDS011;22890;51.820;8.682;2023-05-07T04:06:49;22.03;;;15.33;;
11024;SDS011;22890;51.820;8.682;2023-05-07T04:09:16;21.10;;;15.07;;
11024;SDS011;22890;51.820;8.682;2023-05-07T04:11:45;22.50;;;15.47;;
11024;SDS011;22890;51.820;8.682;2023-05-07T04:14:13;21.13;;;14.43;;
11024;SDS011;22890;51.820;8.682;2023-05-07T04:16:40;25.10;;;15.37;;
11024;SDS011;22890;51.820;8.682;2023-05-07T04:19:07;21.77;;;14.80;;
11024;SDS011;22890;51.820;8.682;2023-05-07T04:21:36;22.17;;;14.77;;
11024;SDS011;22890;51.820;8.682;2023-05-07T04:24:03;24.33;;;16.30;;
11024;SDS011;22890;51.820;8.682;2023-05-07T04:26:31;25.10;;;16.33;;
11024;SDS011;22890;51.820;8.682;2023-05-07T04:28:58;22.03;;;14.83;;
11024;SDS011;22890;51.820;8.682;2023-05-07T04:31:30;22.67;;;16.57;;
11024;SDS011;22890;51.820;8.682;2023-05-07T04:33:58;21.83;;;14.70;;
11024;SDS011;22890;51.820;8.682;2023-05-07T04:36:25;20.10;;;14.27;;
11024;SDS011;22890;51.820;8.682;2023-05-07T04:38:59;22.80;;;15.20;;
11024;SDS011;22890;51.820;8.682;2023-05-07T04:41:26;22.33;;;15.80;;
11024;SDS011;22890;51.820;8.682;2023-05-07T04:43:54;22.70;;;15.50;;
11024;SDS011;22890;51.820;8.682;2023-05-07T04:46:23;19.47;;;14.60;;
11024;SDS011;22890;51.820;8.682;2023-05-07T04:48:51;25.93;;;15.73;;
11024;SDS011;22890;51.820;8.682;2023-05-07T04:51:18;23.63;;;15.33;;
11024;SDS011;22890;51.820;8.682;2023-05-07T04:53:45;21.93;;;15.20;;
11024;SDS011;22890;51.820;8.682;2023-05-07T04:56:11;23.17;;;15.17;;
11024;SDS011;22890;51.820;8.682;2023-05-07T04:58:41;24.10;;;14.93;;
11024;SDS011;22890;51.820;8.682;2023-05-07T05:01:09;21.27;;;15.67;;
11024;SDS011;22890;51.820;8.682;2023-05-07T05:03:37;24.63;;;15.93;;
11024;SDS011;22890;51.820;8.682;2023-05-07T05:06:07;22.53;;;15.03;;
11024;SDS011;22890;51.820;8.682;2023-05-07T05:08:34;20.10;;;14.23;;
11024;SDS011;22890;51.820;8.682;2023-05-07T05:11:02;19.00;;;14.53;;
11024;SDS011;22890;51.820;8.682;2023-05-07T05:13:32;21.57;;;14.40;;
11024;SDS011;22890;51.820;8.682;2023-05-07T05:16:02;20.70;;;14.87;;
11024;SDS011;22890;51.820;8.682;2023-05-07T05:18:31;24.13;;;15.57;;
11024;SDS011;22890;51.820;8.682;2023-05-07T05:20:58;21.87;;;13.23;;
11024;SDS011;22890;51.820;8.682;2023-05-07T05:23:26;22.47;;;14.97;;
11024;SDS011;22890;51.820;8.682;2023-05-07T05:25:57;21.57;;;14.87;;
11024;SDS011;22890;51.820;8.682;2023-05-07T05:28:26;17.60;;;13.70;;
11024;SDS011;22890;51.820;8.682;2023-05-07T05:30:54;22.67;;;15.43;;
11024;SDS011;22890;51.820;8.682;2023-05-07T05:33:22;18.07;;;13.30;;
11024;SDS011;22890;51.820;8.682;2023-05-07T05:35:50;16.30;;;12.73;;
11024;SDS011;22890;51.820;8.682;2023-05-07T05:38:17;19.23;;;13.63;;
11024;SDS011;22890;51.820;8.682;2023-05-07T05:40:44;21.43;;;14.57;;
11024;SDS011;22890;51.820;8.682;2023-05-07T05:43:11;18.93;;;13.57;;
11024;SDS011;22890;51.820;8.682;2023-05-07T05:45:38;23.73;;;14.63;;
11024;SDS011;22890;51.820;8.682;2023-05-07T05:48:06;20.73;;;13.17;;
11024;SDS011;22890;51.820;8.682;2023-05-07T05:50:34;22.07;;;14.50;;
11024;SDS011;22890;51.820;8.682;2023-05-07T05:53:03;22.93;;;13.17;;
11024;SDS011;22890;51.820;8.682;2023-05-07T05:55:30;20.33;;;13.27;;
11024;SDS011;22890;51.820;8.682;2023-05-07T05:57:59;19.20;;;13.77;;
11024;SDS011;22890;51.820;8.682;2023-05-07T06:00:29;18.77;;;13.50;;
11024;SDS011;22890;51.820;8.682;2023-05-07T06:03:01;17.87;;;13.73;;
11024;SDS011;22890;51.820;8.682;2023-05-07T06:05:28;19.63;;;12.97;;
11024;SDS011;22890;51.820;8.682;2023-05-07T06:07:56;20.37;;;12.90;;
11024;SDS011;22890;51.820;8.682;2023-05-07T06:10:25;18.67;;;12.87;;
11024;SDS011;22890;51.820;8.682;2023-05-07T06:12:53;17.23;;;12.73;;
11024;SDS011;22890;51.820;8.682;2023-05-07T06:15:21;17.10;;;11.83;;
11024;SDS011;22890;51.820;8.682;2023-05-07T06:17:49;17.03;;;12.10;;
11024;SDS011;22890;51.820;8.682;2023-05-07T06:20:16;15.73;;;11.87;;
11024;SDS011;22890;51.820;8.682;2023-05-07T06:22:43;15.87;;;11.77;;
11024;SDS011;22890;51.820;8.682;2023-05-07T06:25:12;18.47;;;13.30;;
11024;SDS011;22890;51.820;8.682;2023-05-07T06:27:42;16.03;;;12.17;;
11024;SDS011;22890;51.820;8.682;2023-05-07T06:30:09;15.80;;;12.13;;
11024;SDS011;22890;51.820;8.682;2023-05-07T06:32:36;16.00;;;12.10;;
11024;SDS011;22890;51.820;8.682;2023-05-07T06:35:04;15.17;;;10.87;;
11024;SDS011;22890;51.820;8.682;2023-05-07T06:37:34;17.20;;;11.63;;
11024;SDS011;22890;51.820;8.682;2023-05-07T06:40:05;17.23;;;11.70;;
11024;SDS011;22890;51.820;8.682;2023-05-07T06:42:36;16.57;;;11.57;;
11024;SDS011;22890;51.820;8.682;2023-05-07T06:45:32;14.47;;;11.50;;
11024;SDS011;22890;51.820;8.682;2023-05-07T06:47:59;16.20;;;12.03;;
11024;SDS011;22890;51.820;8.682;2023-05-07T06:50:29;14.60;;;11.63;;
11024;SDS011;22890;51.820;8.682;2023-05-07T06:52:57;14.07;;;11.03;;
11024;SDS011;22890;51.820;8.682;2023-05-07T06:55:24;14.77;;;11.40;;
11024;SDS011;22890;51.820;8.682;2023-05-07T06:57:52;16.23;;;10.93;;
11024;SDS011;22890;51.820;8.682;2023-05-07T07:00:21;13.10;;;10.40;;
11024;SDS011;22890;51.820;8.682;2023-05-07T07:02:52;15.10;;;11.23;;
11024;SDS011;22890;51.820;8.682;2023-05-07T07:05:22;14.13;;;10.70;;
11024;SDS011;22890;51.820;8.682;2023-05-07T07:07:50;18.10;;;10.97;;
11024;SDS011;22890;51.820;8.682;2023-05-07T07:10:20;13.43;;;10.47;;
11024;SDS011;22890;51.820;8.682;2023-05-07T07:12:50;13.33;;;9.87;;
11024;SDS011;22890;51.820;8.682;2023-05-07T07:15:19;14.80;;;10.17;;
11024;SDS011;22890;51.820;8.682;2023-05-07T07:17:48;14.67;;;10.30;;
11024;SDS011;22890;51.820;8.682;2023-05-07T07:20:15;11.97;;;10.00;;
11024;SDS011;22890;51.820;8.682;2023-05-07T07:22:44;13.53;;;10.27;;
11024;SDS011;22890;51.820;8.682;2023-05-07T07:25:12;12.40;;;10.23;;
11024;SDS011;22890;51.820;8.682;2023-05-07T07:27:39;12.00;;;9.73;;
11024;SDS011;22890;51.820;8.682;2023-05-07T07:30:07;13.20;;;9.77;;
11024;SDS011;22890;51.820;8.682;2023-05-07T07:32:37;11.43;;;8.83;;
11024;SDS011;22890;51.820;8.682;2023-05-07T07:35:04;11.40;;;9.10;;
11024;SDS011;22890;51.820;8.682;2023-05-07T07:37:31;11.70;;;8.77;;
11024;SDS011;22890;51.820;8.682;2023-05-07T07:39:59;12.23;;;9.50;;
11024;SDS011;22890;51.820;8.682;2023-05-07T07:42:26;18.23;;;9.43;;
11024;SDS011;22890;51.820;8.682;2023-05-07T07:44:53;9.43;;;8.30;;
11024;SDS011;22890;51.820;8.682;2023-05-07T07:47:22;11.67;;;9.40;;
11024;SDS011;22890;51.820;8.682;2023-05-07T07:49:50;9.43;;;7.67;;
11024;SDS011;22890;51.820;8.682;2023-05-07T07:52:18;11.03;;;9.03;;
11024;SDS011;22890;51.820;8.682;2023-05-07T07:54:45;11.37;;;8.53;;
11024;SDS011;22890;51.820;8.682;2023-05-07T07:57:12;9.47;;;8.40;;
11024;SDS011;22890;51.820;8.682;2023-05-07T07:59:39;10.33;;;8.40;;
11024;SDS011;22890;51.820;8.682;2023-05-07T08:02:07;8.87;;;7.37;;
11024;SDS011;22890;51.820;8.682;2023-05-07T08:04:35;9.63;;;7.50;;
11024;SDS011;22890;51.820;8.682;2023-05-07T08:07:05;10.17;;;8.30;;
11024;SDS011;22890;51.820;8.682;2023-05-07T08:09:35;10.67;;;7.83;;
11024;SDS011;22890;51.820;8.682;2023-05-07T08:12:03;10.13;;;7.97;;
11024;SDS011;22890;51.820;8.682;2023-05-07T08:14:33;11.47;;;7.83;;
11024;SDS011;22890;51.820;8.682;2023-05-07T08:17:00;9.30;;;7.40;;
11024;SDS011;22890;51.820;8.682;2023-05-07T08:19:28;9.23;;;7.33;;
11024;SDS011;22890;51.820;8.682;2023-05-07T08:21:55;8.60;;;7.43;;
11024;SDS011;22890;51.820;8.682;2023-05-07T08:24:24;8.93;;;7.60;;
11024;SDS011;22890;51.820;8.682;2023-05-07T08:26:51;9.43;;;7.87;;
11024;SDS011;22890;51.820;8.682;2023-05-07T08:29:19;8.90;;;7.63;;
11024;SDS011;22890;51.820;8.682;2023-05-07T08:31:46;8.30;;;7.17;;
11024;SDS011;22890;51.820;8.682;2023-05-07T08:34:13;9.60;;;7.97;;
11024;SDS011;22890;51.820;8.682;2023-05-07T08:36:43;8.30;;;7.40;;
11024;SDS011;22890;51.820;8.682;2023-05-07T08:39:17;9.13;;;8.23;;
11024;SDS011;22890;51.820;8.682;2023-05-07T08:41:47;7.83;;;6.93;;
11024;SDS011;22890;51.820;8.682;2023-05-07T08:44:17;8.27;;;7.23;;
11024;SDS011;22890;51.820;8.682;2023-05-07T08:46:49;8.50;;;7.60;;
11024;SDS011;22890;51.820;8.682;2023-05-07T08:49:20;7.73;;;6.53;;
11024;SDS011;22890;51.820;8.682;2023-05-07T08:51:47;9.60;;;7.47;;
11024;SDS011;22890;51.820;8.682;2023-05-07T08:54:15;9.43;;;8.07;;
11024;SDS011;22890;51.820;8.682;2023-05-07T08:56:42;10.90;;;7.87;;
11024;SDS011;22890;51.820;8.682;2023-05-07T08:59:10;9.20;;;7.43;;
11024;SDS011;22890;51.820;8.682;2023-05-07T09:01:37;10.33;;;7.03;;
11024;SDS011;22890;51.820;8.682;2023-05-07T09:04:05;9.90;;;8.07;;
11024;SDS011;22890;51.820;8.682;2023-05-07T09:06:33;11.10;;;8.13;;
11024;SDS011;22890;51.820;8.682;2023-05-07T09:09:01;11.27;;;7.67;;
11024;SDS011;22890;51.820;8.682;2023-05-07T09:11:32;10.37;;;7.60;;
11024;SDS011;22890;51.820;8.682;2023-05-07T09:14:00;9.63;;;7.97;;
11024;SDS011;22890;51.820;8.682;2023-05-07T09:16:33;9.63;;;7.60;;
11024;SDS011;22890;51.820;8.682;2023-05-07T09:19:01;8.93;;;7.23;;
11024;SDS011;22890;51.820;8.682;2023-05-07T09:21:28;8.70;;;7.20;;
11024;SDS011;22890;51.820;8.682;2023-05-07T09:23:58;8.97;;;7.40;;
11024;SDS011;22890;51.820;8.682;2023-05-07T09:26:34;9.30;;;7.33;;
11024;SDS011;22890;51.820;8.682;2023-05-07T09:29:02;8.47;;;7.47;;
11024;SDS011;22890;51.820;8.682;2023-05-07T09:31:29;10.60;;;8.03;;
11024;SDS011;22890;51.820;8.682;2023-05-07T09:33:57;9.20;;;6.40;;
11024;SDS011;22890;51.820;8.682;2023-05-07T09:36:27;11.40;;;7.50;;
11024;SDS011;22890;51.820;8.682;2023-05-07T09:38:55;9.90;;;8.37;;
11024;SDS011;22890;51.820;8.682;2023-05-07T09:41:22;10.40;;;8.37;;
11024;SDS011;22890;51.820;8.682;2023-05-07T09:43:57;8.87;;;7.93;;
11024;SDS011;22890;51.820;8.682;2023-05-07T09:46:30;8.77;;;6.87;;
11024;SDS011;22890;51.820;8.682;2023-05-07T09:49:02;9.13;;;7.67;;
11024;SDS011;22890;51.820;8.682;2023-05-07T09:51:39;8.03;;;6.93;;
11024;SDS011;22890;51.820;8.682;2023-05-07T09:54:09;9.73;;;7.93;;
11024;SDS011;22890;51.820;8.682;2023-05-07T09:56:40;8.43;;;7.53;;
11024;SDS011;22890;51.820;8.682;2023-05-07T09:59:10;9.53;;;7.47;;
11024;SDS011;22890;51.820;8.682;2023-05-07T10:01:40;8.77;;;7.33;;
11024;SDS011;22890;51.820;8.682;2023-05-07T10:04:09;9.10;;;7.47;;
11024;SDS011;22890;51.820;8.682;2023-05-07T10:06:38;9.33;;;7.20;;
11024;SDS011;22890;51.820;8.682;2023-05-07T10:09:06;10.77;;;7.67;;
11024;SDS011;22890;51.820;8.682;2023-05-07T10:11:34;10.57;;;6.90;;
11024;SDS011;22890;51.820;8.682;2023-05-07T10:14:02;9.37;;;7.23;;
11024;SDS011;22890;51.820;8.682;2023-05-07T10:16:33;10.40;;;6.73;;
11024;SDS011;22890;51.820;8.682;2023-05-07T10:19:06;8.03;;;6.50;;
11024;SDS011;22890;51.820;8.682;2023-05-07T10:21:37;9.33;;;6.83;;
11024;SDS011;22890;51.820;8.682;2023-05-07T10:24:05;7.77;;;6.40;;
11024;SDS011;22890;51.820;8.682;2023-05-07T10:26:45;7.97;;;6.60;;
11024;SDS011;22890;51.820;8.682;2023-05-07T10:29:17;8.13;;;6.83;;
11024;SDS011;22890;51.820;8.682;2023-05-07T10:34:40;8.50;;;7.23;;
11024;SDS011;22890;51.820;8.682;2023-05-07T10:37:11;9.03;;;6.50;;
11024;SDS011;22890;51.820;8.682;2023-05-07T10:39:39;8.00;;;7.17;;
11024;SDS011;22890;51.820;8.682;2023-05-07T10:42:08;8.20;;;6.07;;
11024;SDS011;22890;51.820;8.682;2023-05-07T10:44:37;8.03;;;6.57;;
11024;SDS011;22890;51.820;8.682;2023-05-07T10:47:10;6.83;;;6.13;;
11024;SDS011;22890;51.820;8.682;2023-05-07T10:52:22;7.80;;;6.00;;
11024;SDS011;22890;51.820;8.682;2023-05-07T11:01:07;6.20;;;5.60;;
11024;SDS011;22890;51.820;8.682;2023-05-07T11:04:12;6.20;;;5.60;;
11024;SDS011;22890;51.820;8.682;2023-05-07T11:15:09;6.87;;;5.53;;
11024;SDS011;22890;51.820;8.682;2023-05-07T11:17:57;7.10;;;6.00;;
11024;SDS011;22890;51.820;8.682;2023-05-07T11:26:13;5.90;;;5.30;;
11024;SDS011;22890;51.820;8.682;2023-05-07T11:28:42;6.93;;;4.70;;
11024;SDS011;22890;51.820;8.682;2023-05-07T11:31:10;5.83;;;5.23;;
11024;SDS011;22890;51.820;8.682;2023-05-07T11:33:38;5.03;;;4.60;;
11024;SDS011;22890;51.820;8.682;2023-05-07T11:36:09;6.70;;;5.53;;
11024;SDS011;22890;51.820;8.682;2023-05-07T11:38:43;5.93;;;4.83;;
11024;SDS011;22890;51.820;8.682;2023-05-07T11:41:10;6.77;;;5.10;;
11024;SDS011;22890;51.820;8.682;2023-05-07T11:43:37;5.97;;;5.37;;
11024;SDS011;22890;51.820;8.682;2023-05-07T11:46:07;5.23;;;4.73;;
11024;SDS011;22890;51.820;8.682;2023-05-07T11:48:38;5.37;;;4.63;;
11024;SDS011;22890;51.820;8.682;2023-05-07T11:51:05;5.77;;;5.17;;
11024;SDS011;22890;51.820;8.682;2023-05-07T11:53:35;5.80;;;4.63;;
11024;SDS011;22890;51.820;8.682;2023-05-07T11:56:06;4.33;;;3.93;;
11024;SDS011;22890;51.820;8.682;2023-05-07T11:58:37;5.87;;;4.50;;
11024;SDS011;22890;51.820;8.682;2023-05-07T12:01:06;4.50;;;4.00;;
11024;SDS011;22890;51.820;8.682;2023-05-07T12:03:35;5.43;;;4.10;;
11024;SDS011;22890;51.820;8.682;2023-05-07T12:06:09;7.03;;;4.43;;
11024;SDS011;22890;51.820;8.682;2023-05-07T12:08:37;4.63;;;4.23;;
11024;SDS011;22890;51.820;8.682;2023-05-07T12:11:09;4.47;;;3.90;;
11024;SDS011;22890;51.820;8.682;2023-05-07T12:13:38;4.53;;;4.13;;
11024;SDS011;22890;51.820;8.682;2023-05-07T12:16:06;4.50;;;4.10;;
11024;SDS011;22890;51.820;8.682;2023-05-07T12:18:33;5.37;;;3.93;;
11024;SDS011;22890;51.820;8.682;2023-05-07T12:21:01;4.37;;;3.97;;
11024;SDS011;22890;51.820;8.682;2023-05-07T12:23:29;4.60;;;3.60;;
11024;SDS011;22890;51.820;8.682;2023-05-07T12:25:56;5.13;;;4.00;;
11024;SDS011;22890;51.820;8.682;2023-05-07T12:28:23;5.67;;;3.87;;
11024;SDS011;22890;51.820;8.682;2023-05-07T12:30:50;5.03;;;3.53;;
11024;SDS011;22890;51.820;8.682;2023-05-07T12:33:18;3.57;;;3.27;;
11024;SDS011;22890;51.820;8.682;2023-05-07T12:35:49;4.33;;;3.60;;
11024;SDS011;22890;51.820;8.682;2023-05-07T12:38:17;5.13;;;4.17;;
11024;SDS011;22890;51.820;8.682;2023-05-07T12:40:45;4.90;;;3.83;;
11024;SDS011;22890;51.820;8.682;2023-05-07T12:43:17;5.30;;;3.30;;
11024;SDS011;22890;51.820;8.682;2023-05-07T12:45:45;4.40;;;3.60;;
11024;SDS011;22890;51.820;8.682;2023-05-07T12:48:14;5.07;;;4.03;;
11024;SDS011;22890;51.820;8.682;2023-05-07T12:50:41;3.77;;;3.43;;
11024;SDS011;22890;51.820;8.682;2023-05-07T12:53:09;4.40;;;3.90;;
11024;SDS011;22890;51.820;8.682;2023-05-07T12:55:41;4.47;;;3.60;;
11024;SDS011;22890;51.820;8.682;2023-05-07T12:58:14;4.20;;;3.80;;
11024;SDS011;22890;51.820;8.682;2023-05-07T13:00:45;3.70;;;3.40;;
11024;SDS011;22890;51.820;8.682;2023-05-07T13:03:24;3.63;;;3.30;;
11024;SDS011;22890;51.820;8.682;2023-05-07T13:05:53;4.70;;;3.73;;
11024;SDS011;22890;51.820;8.682;2023-05-07T13:08:28;4.20;;;3.80;;
11024;SDS011;22890;51.820;8.682;2023-05-07T13:11:13;3.73;;;3.43;;
11024;SDS011;22890;51.820;8.682;2023-05-07T13:13:40;3.97;;;3.67;;
11024;SDS011;22890;51.820;8.682;2023-05-07T13:16:10;3.67;;;3.10;;
11024;SDS011;22890;51.820;8.682;2023-05-07T13:18:38;4.57;;;3.77;;
11024;SDS011;22890;51.820;8.682;2023-05-07T13:21:06;4.67;;;3.50;;
11024;SDS011;22890;51.820;8.682;2023-05-07T13:23:33;4.23;;;3.77;;
11024;SDS011;22890;51.820;8.682;2023-05-07T13:26:00;4.00;;;3.70;;
11024;SDS011;22890;51.820;8.682;2023-05-07T13:28:40;5.60;;;4.00;;
11024;SDS011;22890;51.820;8.682;2023-05-07T13:31:06;6.03;;;3.73;;
11024;SDS011;22890;51.820;8.682;2023-05-07T13:33:34;5.03;;;4.53;;
11024;SDS011;22890;51.820;8.682;2023-05-07T13:36:01;4.37;;;3.97;;
11024;SDS011;22890;51.820;8.682;2023-05-07T13:38:31;6.00;;;4.37;;
11024;SDS011;22890;51.820;8.682;2023-05-07T13:40:58;5.80;;;4.73;;
11024;SDS011;22890;51.820;8.682;2023-05-07T13:43:24;4.53;;;4.13;;
11024;SDS011;22890;51.820;8.682;2023-05-07T13:45:51;4.67;;;4.27;;
11024;SDS011;22890;51.820;8.682;2023-05-07T13:48:18;5.63;;;4.83;;
11024;SDS011;22890;51.820;8.682;2023-05-07T13:50:45;4.53;;;4.13;;
11024;SDS011;22890;51.820;8.682;2023-05-07T13:53:12;7.57;;;5.57;;
11024;SDS011;22890;51.820;8.682;2023-05-07T13:55:39;5.07;;;4.57;;
11024;SDS011;22890;51.820;8.682;2023-05-07T13:58:06;6.03;;;5.40;;
11024;SDS011;22890;51.820;8.682;2023-05-07T14:00:33;5.93;;;4.97;;
11024;SDS011;22890;51.820;8.682;2023-05-07T14:03:00;4.60;;;4.20;;
11024;SDS011;22890;51.820;8.682;2023-05-07T14:05:27;5.90;;;5.40;;
11024;SDS011;22890;51.820;8.682;2023-05-07T14:07:54;5.60;;;5.10;;
11024;SDS011;22890;51.820;8.682;2023-05-07T14:10:23;7.23;;;5.50;;
11024;SDS011;22890;51.820;8.682;2023-05-07T14:12:50;7.63;;;5.47;;
11024;SDS011;22890;51.820;8.682;2023-05-07T14:15:18;6.77;;;5.47;;
11024;SDS011;22890;51.820;8.682;2023-05-07T14:17:45;5.63;;;5.13;;
11024;SDS011;22890;51.820;8.682;2023-05-07T14:20:13;6.77;;;5.60;;
11024;SDS011;22890;51.820;8.682;2023-05-07T14:22:40;6.33;;;5.73;;
11024;SDS011;22890;51.820;8.682;2023-05-07T14:25:07;7.20;;;5.33;;
11024;SDS011;22890;51.820;8.682;2023-05-07T14:27:35;7.30;;;6.13;;
11024;SDS011;22890;51.820;8.682;2023-05-07T14:30:02;5.63;;;5.13;;
11024;SDS011;22890;51.820;8.682;2023-05-07T14:32:29;7.60;;;5.73;;
11024;SDS011;22890;51.820;8.682;2023-05-07T14:34:57;7.27;;;6.57;;
11024;SDS011;22890;51.820;8.682;2023-05-07T14:37:24;6.00;;;5.40;;
11024;SDS011;22890;51.820;8.682;2023-05-07T14:39:51;7.43;;;6.60;;
11024;SDS011;22890;51.820;8.682;2023-05-07T14:42:18;7.40;;;6.30;;
11024;SDS011;22890;51.820;8.682;2023-05-07T14:44:45;7.70;;;6.90;;
11024;SDS011;22890;51.820;8.682;2023-05-07T14:47:14;7.23;;;6.53;;
11024;SDS011;22890;51.820;8.682;2023-05-07T14:49:44;6.73;;;5.67;;
11024;SDS011;22890;51.820;8.682;2023-05-07T14:52:11;8.40;;;6.50;;
11024;SDS011;22890;51.820;8.682;2023-05-07T14:54:38;6.70;;;6.10;;
11024;SDS011;22890;51.820;8.682;2023-05-07T14:57:06;6.67;;;5.97;;
11024;SDS011;22890;51.820;8.682;2023-05-07T14:59:34;7.73;;;6.83;;
11024;SDS011;22890;51.820;8.682;2023-05-07T15:02:01;7.27;;;6.60;;
11024;SDS011;22890;51.820;8.682;2023-05-07T15:04:32;7.80;;;6.57;;
11024;SDS011;22890;51.820;8.682;2023-05-07T15:06:58;8.50;;;7.43;;
11024;SDS011;22890;51.820;8.682;2023-05-07T15:09:26;8.33;;;7.10;;